sensor_id;sensor_type;location;lat;lon;timestamp;P1;durP1;ratioP1;P2;durP2;ratioP2
819;SDS011;392;48.838;2.322;2023-02-13T00:00:23;21.57;;;19.27;;
819;SDS011;392;48.838;2.322;2023-02-13T00:02:51;27.23;;;22.77;;
819;SDS011;392;48.838;2.322;2023-02-13T00:05:20;21.30;;;17.87;;
819;SDS011;392;48.838;2.322;2023-02-13T00:07:47;22.00;;;19.27;;
819;SDS011;392;48.838;2.322;2023-02-13T00:10:14;20.33;;;17.67;;
819;SDS011;392;48.838;2.322;2023-02-13T00:12:42;21.70;;;19.27;;
819;SDS011;392;48.838;2.322;2023-02-13T00:15:10;21.87;;;18.57;;
819;SDS011;392;48.838;2.322;2023-02-13T00:17:38;21.83;;;18.57;;
819;SDS011;392;48.838;2.322;2023-02-13T00:20:06;23.00;;;19.17;;
819;SDS011;392;48.838;2.322;2023-02-13T00:22:37;20.03;;;17.93;;
819;SDS011;392;48.838;2.322;2023-02-13T00:25:05;22.03;;;19.07;;
819;SDS011;392;48.838;2.322;2023-02-13T00:27:34;20.77;;;18.50;;
819;SDS011;392;48.838;2.322;2023-02-13T00:30:01;22.20;;;18.13;;
819;SDS011;392;48.838;2.322;2023-02-13T00:32:30;26.63;;;22.40;;
819;SDS011;392;48.838;2.322;2023-02-13T00:34:59;19.93;;;17.10;;
819;SDS011;392;48.838;2.322;2023-02-13T00:37:26;21.83;;;18.50;;
819;SDS011;392;48.838;2.322;2023-02-13T00:39:54;20.03;;;18.00;;
819;SDS011;392;48.838;2.322;2023-02-13T00:42:22;21.03;;;18.13;;
819;SDS011;392;48.838;2.322;2023-02-13T00:44:50;22.80;;;19.30;;
819;SDS011;392;48.838;2.322;2023-02-13T00:47:18;22.33;;;19.43;;
819;SDS011;392;48.838;2.322;2023-02-13T00:49:46;21.83;;;18.33;;
819;SDS011;392;48.838;2.322;2023-02-13T00:52:15;23.80;;;19.57;;
819;SDS011;392;48.838;2.322;2023-02-13T00:54:42;20.97;;;18.77;;
819;SDS011;392;48.838;2.322;2023-02-13T00:57:11;22.57;;;19.40;;
819;SDS011;392;48.838;2.322;2023-02-13T00:59:41;22.73;;;19.37;;
819;SDS011;392;48.838;2.322;2023-02-13T01:02:08;22.57;;;19.37;;
819;SDS011;392;48.838;2.322;2023-02-13T01:04:35;23.40;;;18.90;;
819;SDS011;392;48.838;2.322;2023-02-13T01:07:03;20.30;;;18.10;;
819;SDS011;392;48.838;2.322;2023-02-13T01:09:32;23.70;;;19.77;;
819;SDS011;392;48.838;2.322;2023-02-13T01:12:00;25.50;;;20.70;;
819;SDS011;392;48.838;2.322;2023-02-13T01:14:27;23.47;;;19.93;;
819;SDS011;392;48.838;2.322;2023-02-13T01:16:55;24.37;;;18.80;;
819;SDS011;392;48.838;2.322;2023-02-13T01:19:23;22.47;;;20.10;;
819;SDS011;392;48.838;2.322;2023-02-13T01:21:50;24.50;;;20.40;;
819;SDS011;392;48.838;2.322;2023-02-13T01:24:18;22.97;;;19.80;;
819;SDS011;392;48.838;2.322;2023-02-13T01:26:47;24.30;;;21.03;;
819;SDS011;392;48.838;2.322;2023-02-13T01:29:14;22.53;;;19.87;;
819;SDS011;392;48.838;2.322;2023-02-13T01:31:41;25.10;;;21.30;;
819;SDS011;392;48.838;2.322;2023-02-13T01:34:09;25.47;;;21.30;;
819;SDS011;392;48.838;2.322;2023-02-13T01:36:36;26.30;;;21.97;;
819;SDS011;392;48.838;2.322;2023-02-13T01:39:04;25.87;;;21.80;;
819;SDS011;392;48.838;2.322;2023-02-13T01:41:32;26.13;;;21.67;;
819;SDS011;392;48.838;2.322;2023-02-13T01:44:01;22.20;;;18.50;;
819;SDS011;392;48.838;2.322;2023-02-13T01:46:30;23.17;;;20.13;;
819;SDS011;392;48.838;2.322;2023-02-13T01:49:09;24.20;;;20.77;;
819;SDS011;392;48.838;2.322;2023-02-13T01:51:39;31.20;;;24.93;;
819;SDS011;392;48.838;2.322;2023-02-13T01:54:08;25.30;;;20.43;;
819;SDS011;392;48.838;2.322;2023-02-13T01:56:42;26.90;;;21.80;;
819;SDS011;392;48.838;2.322;2023-02-13T01:59:15;26.03;;;21.20;;
819;SDS011;392;48.838;2.322;2023-02-13T02:01:46;25.03;;;21.70;;
819;SDS011;392;48.838;2.322;2023-02-13T02:04:14;25.27;;;21.30;;
819;SDS011;392;48.838;2.322;2023-02-13T02:06:49;25.60;;;21.20;;
819;SDS011;392;48.838;2.322;2023-02-13T02:09:26;28.83;;;22.00;;
819;SDS011;392;48.838;2.322;2023-02-13T02:12:00;26.60;;;21.10;;
819;SDS011;392;48.838;2.322;2023-02-13T02:14:37;26.00;;;21.60;;
819;SDS011;392;48.838;2.322;2023-02-13T02:17:08;26.00;;;21.87;;
819;SDS011;392;48.838;2.322;2023-02-13T02:19:37;25.93;;;21.20;;
819;SDS011;392;48.838;2.322;2023-02-13T02:22:28;24.33;;;20.90;;
819;SDS011;392;48.838;2.322;2023-02-13T02:25:52;26.97;;;21.33;;
819;SDS011;392;48.838;2.322;2023-02-13T02:29:08;26.47;;;22.80;;
819;SDS011;392;48.838;2.322;2023-02-13T02:32:17;26.63;;;21.57;;
819;SDS011;392;48.838;2.322;2023-02-13T02:35:05;26.67;;;22.20;;
819;SDS011;392;48.838;2.322;2023-02-13T02:37:51;26.80;;;23.00;;
819;SDS011;392;48.838;2.322;2023-02-13T02:40:33;26.90;;;22.80;;
819;SDS011;392;48.838;2.322;2023-02-13T02:43:20;31.93;;;24.97;;
819;SDS011;392;48.838;2.322;2023-02-13T02:46:05;29.40;;;23.20;;
819;SDS011;392;48.838;2.322;2023-02-13T02:48:42;31.97;;;25.37;;
819;SDS011;392;48.838;2.322;2023-02-13T02:51:40;28.07;;;23.97;;
819;SDS011;392;48.838;2.322;2023-02-13T02:54:16;29.50;;;24.37;;
819;SDS011;392;48.838;2.322;2023-02-13T02:57:11;30.50;;;24.27;;
819;SDS011;392;48.838;2.322;2023-02-13T02:59:52;30.07;;;25.60;;
819;SDS011;392;48.838;2.322;2023-02-13T03:02:38;28.53;;;23.60;;
819;SDS011;392;48.838;2.322;2023-02-13T03:05:25;29.53;;;24.50;;
819;SDS011;392;48.838;2.322;2023-02-13T03:08:14;30.17;;;25.87;;
819;SDS011;392;48.838;2.322;2023-02-13T03:11:03;30.67;;;24.70;;
819;SDS011;392;48.838;2.322;2023-02-13T03:13:48;29.17;;;24.53;;
819;SDS011;392;48.838;2.322;2023-02-13T03:16:17;29.03;;;23.40;;
819;SDS011;392;48.838;2.322;2023-02-13T03:19:03;28.67;;;24.03;;
819;SDS011;392;48.838;2.322;2023-02-13T03:21:50;30.23;;;25.30;;
819;SDS011;392;48.838;2.322;2023-02-13T03:24:44;28.53;;;24.30;;
819;SDS011;392;48.838;2.322;2023-02-13T03:27:22;29.53;;;25.03;;
819;SDS011;392;48.838;2.322;2023-02-13T03:30:20;28.23;;;23.30;;
819;SDS011;392;48.838;2.322;2023-02-13T03:32:59;27.67;;;22.90;;
819;SDS011;392;48.838;2.322;2023-02-13T03:35:44;28.80;;;24.87;;
819;SDS011;392;48.838;2.322;2023-02-13T03:38:38;29.50;;;23.23;;
819;SDS011;392;48.838;2.322;2023-02-13T03:41:12;29.60;;;23.30;;
819;SDS011;392;48.838;2.322;2023-02-13T03:43:46;31.07;;;24.77;;
819;SDS011;392;48.838;2.322;2023-02-13T03:46:22;28.63;;;22.80;;
819;SDS011;392;48.838;2.322;2023-02-13T03:48:52;28.70;;;23.10;;
819;SDS011;392;48.838;2.322;2023-02-13T03:51:38;28.70;;;24.80;;
819;SDS011;392;48.838;2.322;2023-02-13T03:54:14;30.60;;;23.83;;
819;SDS011;392;48.838;2.322;2023-02-13T03:56:46;28.53;;;23.73;;
819;SDS011;392;48.838;2.322;2023-02-13T03:59:34;34.37;;;24.87;;
819;SDS011;392;48.838;2.322;2023-02-13T04:02:04;28.60;;;23.33;;
819;SDS011;392;48.838;2.322;2023-02-13T04:04:40;28.70;;;23.83;;
819;SDS011;392;48.838;2.322;2023-02-13T04:07:16;31.03;;;23.97;;
819;SDS011;392;48.838;2.322;2023-02-13T04:09:56;29.80;;;23.70;;
819;SDS011;392;48.838;2.322;2023-02-13T04:12:29;28.77;;;23.30;;
819;SDS011;392;48.838;2.322;2023-02-13T04:15:06;29.60;;;23.10;;
819;SDS011;392;48.838;2.322;2023-02-13T04:17:40;29.40;;;23.20;;
819;SDS011;392;48.838;2.322;2023-02-13T04:20:12;27.13;;;23.20;;
819;SDS011;392;48.838;2.322;2023-02-13T04:22:40;27.73;;;24.37;;
819;SDS011;392;48.838;2.322;2023-02-13T04:25:11;27.00;;;22.77;;
819;SDS011;392;48.838;2.322;2023-02-13T04:27:40;29.73;;;23.93;;
819;SDS011;392;48.838;2.322;2023-02-13T04:30:08;26.10;;;22.90;;
819;SDS011;392;48.838;2.322;2023-02-13T04:32:36;30.27;;;24.50;;
819;SDS011;392;48.838;2.322;2023-02-13T04:35:04;27.37;;;23.07;;
819;SDS011;392;48.838;2.322;2023-02-13T04:37:32;27.23;;;23.50;;
819;SDS011;392;48.838;2.322;2023-02-13T04:39:59;27.20;;;22.30;;
819;SDS011;392;48.838;2.322;2023-02-13T04:42:28;25.80;;;22.20;;
819;SDS011;392;48.838;2.322;2023-02-13T04:44:55;26.63;;;21.93;;
819;SDS011;392;48.838;2.322;2023-02-13T04:47:22;29.20;;;23.07;;
819;SDS011;392;48.838;2.322;2023-02-13T04:49:50;29.17;;;23.60;;
819;SDS011;392;48.838;2.322;2023-02-13T04:52:17;30.23;;;24.13;;
819;SDS011;392;48.838;2.322;2023-02-13T04:54:45;31.07;;;23.77;;
819;SDS011;392;48.838;2.322;2023-02-13T04:57:12;31.17;;;24.40;;
819;SDS011;392;48.838;2.322;2023-02-13T04:59:41;28.60;;;23.53;;
819;SDS011;392;48.838;2.322;2023-02-13T05:02:08;32.37;;;25.03;;
819;SDS011;392;48.838;2.322;2023-02-13T05:04:36;29.13;;;24.20;;
819;SDS011;392;48.838;2.322;2023-02-13T05:07:03;29.27;;;23.27;;
819;SDS011;392;48.838;2.322;2023-02-13T05:09:30;30.03;;;23.50;;
819;SDS011;392;48.838;2.322;2023-02-13T05:11:58;31.53;;;23.90;;
819;SDS011;392;48.838;2.322;2023-02-13T05:14:26;31.07;;;24.13;;
819;SDS011;392;48.838;2.322;2023-02-13T05:16:55;30.67;;;23.90;;
819;SDS011;392;48.838;2.322;2023-02-13T05:19:22;28.93;;;23.60;;
819;SDS011;392;48.838;2.322;2023-02-13T05:21:49;29.13;;;23.20;;
819;SDS011;392;48.838;2.322;2023-02-13T05:24:34;29.50;;;24.30;;
819;SDS011;392;48.838;2.322;2023-02-13T05:27:02;30.03;;;23.87;;
819;SDS011;392;48.838;2.322;2023-02-13T05:29:29;31.10;;;25.20;;
819;SDS011;392;48.838;2.322;2023-02-13T05:31:58;27.50;;;22.77;;
819;SDS011;392;48.838;2.322;2023-02-13T05:34:26;26.10;;;22.70;;
819;SDS011;392;48.838;2.322;2023-02-13T05:36:54;31.60;;;24.10;;
819;SDS011;392;48.838;2.322;2023-02-13T05:39:22;29.50;;;24.03;;
819;SDS011;392;48.838;2.322;2023-02-13T05:41:49;30.43;;;24.07;;
819;SDS011;392;48.838;2.322;2023-02-13T05:44:16;29.10;;;24.13;;
819;SDS011;392;48.838;2.322;2023-02-13T05:46:44;29.50;;;23.07;;
819;SDS011;392;48.838;2.322;2023-02-13T05:49:13;29.63;;;24.00;;
819;SDS011;392;48.838;2.322;2023-02-13T05:51:41;31.15;;;23.85;;
819;SDS011;392;48.838;2.322;2023-02-13T05:54:10;29.20;;;24.33;;
819;SDS011;392;48.838;2.322;2023-02-13T05:56:38;33.37;;;25.13;;
819;SDS011;392;48.838;2.322;2023-02-13T05:59:06;30.03;;;23.60;;
819;SDS011;392;48.838;2.322;2023-02-13T06:01:33;31.67;;;24.40;;
819;SDS011;392;48.838;2.322;2023-02-13T06:04:00;32.72;;;25.00;;
819;SDS011;392;48.838;2.322;2023-02-13T06:06:29;31.87;;;24.87;;
819;SDS011;392;48.838;2.322;2023-02-13T06:08:56;29.73;;;24.90;;
819;SDS011;392;48.838;2.322;2023-02-13T06:11:24;31.53;;;24.00;;
819;SDS011;392;48.838;2.322;2023-02-13T06:13:51;33.40;;;24.97;;
819;SDS011;392;48.838;2.322;2023-02-13T06:16:19;32.47;;;25.00;;
819;SDS011;392;48.838;2.322;2023-02-13T06:18:46;34.17;;;27.77;;
819;SDS011;392;48.838;2.322;2023-02-13T06:21:14;35.40;;;27.83;;
819;SDS011;392;48.838;2.322;2023-02-13T06:23:43;33.03;;;25.90;;
819;SDS011;392;48.838;2.322;2023-02-13T06:26:12;31.57;;;25.57;;
819;SDS011;392;48.838;2.322;2023-02-13T06:28:40;29.43;;;24.07;;
819;SDS011;392;48.838;2.322;2023-02-13T06:31:07;30.70;;;24.17;;
819;SDS011;392;48.838;2.322;2023-02-13T06:33:35;32.70;;;24.60;;
819;SDS011;392;48.838;2.322;2023-02-13T06:36:02;32.47;;;23.93;;
819;SDS011;392;48.838;2.322;2023-02-13T06:38:30;31.57;;;24.70;;
819;SDS011;392;48.838;2.322;2023-02-13T06:40:59;31.40;;;24.80;;
819;SDS011;392;48.838;2.322;2023-02-13T06:43:27;29.10;;;24.75;;
819;SDS011;392;48.838;2.322;2023-02-13T06:45:55;30.77;;;23.30;;
819;SDS011;392;48.838;2.322;2023-02-13T06:48:25;31.93;;;25.37;;
819;SDS011;392;48.838;2.322;2023-02-13T06:50:52;30.43;;;25.50;;
819;SDS011;392;48.838;2.322;2023-02-13T06:53:19;32.93;;;25.47;;
819;SDS011;392;48.838;2.322;2023-02-13T06:55:49;29.83;;;24.73;;
819;SDS011;392;48.838;2.322;2023-02-13T06:58:20;29.80;;;24.17;;
819;SDS011;392;48.838;2.322;2023-02-13T07:00:49;33.00;;;24.67;;
819;SDS011;392;48.838;2.322;2023-02-13T07:03:17;33.70;;;24.80;;
819;SDS011;392;48.838;2.322;2023-02-13T07:05:45;33.67;;;25.30;;
819;SDS011;392;48.838;2.322;2023-02-13T07:08:16;30.60;;;24.83;;
819;SDS011;392;48.838;2.322;2023-02-13T07:10:44;32.27;;;25.10;;
819;SDS011;392;48.838;2.322;2023-02-13T07:13:12;32.10;;;24.77;;
819;SDS011;392;48.838;2.322;2023-02-13T07:15:41;33.37;;;25.27;;
819;SDS011;392;48.838;2.322;2023-02-13T07:18:08;33.13;;;25.60;;
819;SDS011;392;48.838;2.322;2023-02-13T07:20:36;33.05;;;25.15;;
819;SDS011;392;48.838;2.322;2023-02-13T07:23:04;29.80;;;24.00;;
819;SDS011;392;48.838;2.322;2023-02-13T07:25:32;33.03;;;24.47;;
819;SDS011;392;48.838;2.322;2023-02-13T07:28:01;32.97;;;24.77;;
819;SDS011;392;48.838;2.322;2023-02-13T07:30:30;33.63;;;25.93;;
819;SDS011;392;48.838;2.322;2023-02-13T07:33:00;30.63;;;25.87;;
819;SDS011;392;48.838;2.322;2023-02-13T07:35:29;32.53;;;25.70;;
819;SDS011;392;48.838;2.322;2023-02-13T07:37:57;32.17;;;25.10;;
819;SDS011;392;48.838;2.322;2023-02-13T07:40:25;32.17;;;24.93;;
819;SDS011;392;48.838;2.322;2023-02-13T07:42:53;30.33;;;25.70;;
819;SDS011;392;48.838;2.322;2023-02-13T07:45:20;33.60;;;27.13;;
819;SDS011;392;48.838;2.322;2023-02-13T07:47:47;32.50;;;25.90;;
819;SDS011;392;48.838;2.322;2023-02-13T07:50:16;33.77;;;25.30;;
819;SDS011;392;48.838;2.322;2023-02-13T07:52:44;32.27;;;25.43;;
819;SDS011;392;48.838;2.322;2023-02-13T07:55:19;34.90;;;25.93;;
819;SDS011;392;48.838;2.322;2023-02-13T07:57:47;30.80;;;25.13;;
819;SDS011;392;48.838;2.322;2023-02-13T08:00:15;31.50;;;26.17;;
819;SDS011;392;48.838;2.322;2023-02-13T08:02:44;30.80;;;25.07;;
819;SDS011;392;48.838;2.322;2023-02-13T08:05:12;33.13;;;26.60;;
819;SDS011;392;48.838;2.322;2023-02-13T08:07:41;32.20;;;25.67;;
819;SDS011;392;48.838;2.322;2023-02-13T08:10:10;33.20;;;25.57;;
819;SDS011;392;48.838;2.322;2023-02-13T08:12:56;31.87;;;25.40;;
819;SDS011;392;48.838;2.322;2023-02-13T08:15:23;30.00;;;24.40;;
819;SDS011;392;48.838;2.322;2023-02-13T08:17:51;32.83;;;25.60;;
819;SDS011;392;48.838;2.322;2023-02-13T08:20:19;33.43;;;25.57;;
819;SDS011;392;48.838;2.322;2023-02-13T08:22:47;30.90;;;25.30;;
819;SDS011;392;48.838;2.322;2023-02-13T08:25:15;34.30;;;26.60;;
819;SDS011;392;48.838;2.322;2023-02-13T08:27:44;31.73;;;25.87;;
819;SDS011;392;48.838;2.322;2023-02-13T08:30:12;31.50;;;25.87;;
819;SDS011;392;48.838;2.322;2023-02-13T08:32:40;31.30;;;25.87;;
819;SDS011;392;48.838;2.322;2023-02-13T08:35:08;33.30;;;25.17;;
819;SDS011;392;48.838;2.322;2023-02-13T08:37:35;34.03;;;25.77;;
819;SDS011;392;48.838;2.322;2023-02-13T08:40:04;34.10;;;25.60;;
819;SDS011;392;48.838;2.322;2023-02-13T08:42:34;36.20;;;27.03;;
819;SDS011;392;48.838;2.322;2023-02-13T08:45:02;35.37;;;26.70;;
819;SDS011;392;48.838;2.322;2023-02-13T08:47:30;33.07;;;26.40;;
819;SDS011;392;48.838;2.322;2023-02-13T08:49:58;32.83;;;25.97;;
819;SDS011;392;48.838;2.322;2023-02-13T08:52:25;30.70;;;24.80;;
819;SDS011;392;48.838;2.322;2023-02-13T08:54:53;31.40;;;25.23;;
819;SDS011;392;48.838;2.322;2023-02-13T08:57:22;29.43;;;25.00;;
819;SDS011;392;48.838;2.322;2023-02-13T08:59:49;31.80;;;25.97;;
819;SDS011;392;48.838;2.322;2023-02-13T09:02:16;33.70;;;27.73;;
819;SDS011;392;48.838;2.322;2023-02-13T09:04:44;32.83;;;25.97;;
819;SDS011;392;48.838;2.322;2023-02-13T09:07:11;31.60;;;25.13;;
819;SDS011;392;48.838;2.322;2023-02-13T09:09:38;31.67;;;25.90;;
819;SDS011;392;48.838;2.322;2023-02-13T09:12:06;30.50;;;26.70;;
819;SDS011;392;48.838;2.322;2023-02-13T09:14:35;31.47;;;26.00;;
819;SDS011;392;48.838;2.322;2023-02-13T09:17:03;34.57;;;26.90;;
819;SDS011;392;48.838;2.322;2023-02-13T09:19:30;35.33;;;27.40;;
819;SDS011;392;48.838;2.322;2023-02-13T09:21:58;31.33;;;25.83;;
819;SDS011;392;48.838;2.322;2023-02-13T09:24:25;29.83;;;25.97;;
819;SDS011;392;48.838;2.322;2023-02-13T09:26:53;32.23;;;25.87;;
819;SDS011;392;48.838;2.322;2023-02-13T09:29:20;31.60;;;26.60;;
819;SDS011;392;48.838;2.322;2023-02-13T09:31:49;31.73;;;26.23;;
819;SDS011;392;48.838;2.322;2023-02-13T09:34:17;33.50;;;26.60;;
819;SDS011;392;48.838;2.322;2023-02-13T09:36:44;31.97;;;26.70;;
819;SDS011;392;48.838;2.322;2023-02-13T09:39:11;32.37;;;26.13;;
819;SDS011;392;48.838;2.322;2023-02-13T09:41:39;34.43;;;27.90;;
819;SDS011;392;48.838;2.322;2023-02-13T09:44:10;33.37;;;27.63;;
819;SDS011;392;48.838;2.322;2023-02-13T09:46:58;35.40;;;27.17;;
819;SDS011;392;48.838;2.322;2023-02-13T09:49:30;31.73;;;26.70;;
819;SDS011;392;48.838;2.322;2023-02-13T09:52:01;37.00;;;27.33;;
819;SDS011;392;48.838;2.322;2023-02-13T09:54:28;31.80;;;25.43;;
819;SDS011;392;48.838;2.322;2023-02-13T09:56:57;29.57;;;26.33;;
819;SDS011;392;48.838;2.322;2023-02-13T09:59:36;33.93;;;26.73;;
819;SDS011;392;48.838;2.322;2023-02-13T10:02:31;36.77;;;27.90;;
819;SDS011;392;48.838;2.322;2023-02-13T10:05:13;32.60;;;26.80;;
819;SDS011;392;48.838;2.322;2023-02-13T10:08:03;31.80;;;26.80;;
819;SDS011;392;48.838;2.322;2023-02-13T10:10:43;33.50;;;27.27;;
819;SDS011;392;48.838;2.322;2023-02-13T10:13:22;33.90;;;28.10;;
819;SDS011;392;48.838;2.322;2023-02-13T10:16:15;34.33;;;27.57;;
819;SDS011;392;48.838;2.322;2023-02-13T10:18:47;31.57;;;26.47;;
819;SDS011;392;48.838;2.322;2023-02-13T10:21:19;35.07;;;28.20;;
819;SDS011;392;48.838;2.322;2023-02-13T10:23:53;31.50;;;27.90;;
819;SDS011;392;48.838;2.322;2023-02-13T10:26:25;32.73;;;28.30;;
819;SDS011;392;48.838;2.322;2023-02-13T10:29:08;31.87;;;28.23;;
819;SDS011;392;48.838;2.322;2023-02-13T10:32:01;34.23;;;27.97;;
819;SDS011;392;48.838;2.322;2023-02-13T10:34:36;35.70;;;29.17;;
819;SDS011;392;48.838;2.322;2023-02-13T10:37:10;32.60;;;27.47;;
819;SDS011;392;48.838;2.322;2023-02-13T10:39:42;34.40;;;29.87;;
819;SDS011;392;48.838;2.322;2023-02-13T10:42:15;33.00;;;28.43;;
819;SDS011;392;48.838;2.322;2023-02-13T10:47:55;34.27;;;28.90;;
819;SDS011;392;48.838;2.322;2023-02-13T10:50:38;34.57;;;28.47;;
819;SDS011;392;48.838;2.322;2023-02-13T10:53:14;35.83;;;29.57;;
819;SDS011;392;48.838;2.322;2023-02-13T10:55:58;34.20;;;29.87;;
819;SDS011;392;48.838;2.322;2023-02-13T10:58:48;34.97;;;29.30;;
819;SDS011;392;48.838;2.322;2023-02-13T11:01:32;35.40;;;29.27;;
819;SDS011;392;48.838;2.322;2023-02-13T11:04:06;33.17;;;28.80;;
819;SDS011;392;48.838;2.322;2023-02-13T11:06:39;34.77;;;30.17;;
819;SDS011;392;48.838;2.322;2023-02-13T11:09:09;35.90;;;30.20;;
819;SDS011;392;48.838;2.322;2023-02-13T11:11:39;34.97;;;29.90;;
819;SDS011;392;48.838;2.322;2023-02-13T11:14:09;36.00;;;28.93;;
819;SDS011;392;48.838;2.322;2023-02-13T11:16:42;34.13;;;30.10;;
819;SDS011;392;48.838;2.322;2023-02-13T11:19:25;35.10;;;27.80;;
819;SDS011;392;48.838;2.322;2023-02-13T11:21:59;35.20;;;27.03;;
819;SDS011;392;48.838;2.322;2023-02-13T11:24:30;31.70;;;26.97;;
819;SDS011;392;48.838;2.322;2023-02-13T11:27:00;33.37;;;28.80;;
819;SDS011;392;48.838;2.322;2023-02-13T11:29:33;35.33;;;27.40;;
819;SDS011;392;48.838;2.322;2023-02-13T11:32:04;36.47;;;25.27;;
819;SDS011;392;48.838;2.322;2023-02-13T11:34:44;29.20;;;26.00;;
819;SDS011;392;48.838;2.322;2023-02-13T11:37:18;28.40;;;22.60;;
819;SDS011;392;48.838;2.322;2023-02-13T11:39:49;30.27;;;26.47;;
819;SDS011;392;48.838;2.322;2023-02-13T11:42:20;30.60;;;26.73;;
819;SDS011;392;48.838;2.322;2023-02-13T11:44:57;29.90;;;25.20;;
819;SDS011;392;48.838;2.322;2023-02-13T11:47:32;27.93;;;22.07;;
819;SDS011;392;48.838;2.322;2023-02-13T11:50:03;32.00;;;23.70;;
819;SDS011;392;48.838;2.322;2023-02-13T11:52:37;31.73;;;23.20;;
819;SDS011;392;48.838;2.322;2023-02-13T11:55:05;32.73;;;23.53;;
819;SDS011;392;48.838;2.322;2023-02-13T11:57:56;31.50;;;23.30;;
819;SDS011;392;48.838;2.322;2023-02-13T12:00:27;31.40;;;27.30;;
819;SDS011;392;48.838;2.322;2023-02-13T12:03:02;33.30;;;26.37;;
819;SDS011;392;48.838;2.322;2023-02-13T12:08:41;31.10;;;23.03;;
819;SDS011;392;48.838;2.322;2023-02-13T12:11:14;30.67;;;23.33;;
819;SDS011;392;48.838;2.322;2023-02-13T12:13:48;33.63;;;24.67;;
819;SDS011;392;48.838;2.322;2023-02-13T12:16:19;32.47;;;23.53;;
819;SDS011;392;48.838;2.322;2023-02-13T12:18:55;30.47;;;23.53;;
819;SDS011;392;48.838;2.322;2023-02-13T12:21:29;32.57;;;24.30;;
819;SDS011;392;48.838;2.322;2023-02-13T12:24:13;33.50;;;24.67;;
819;SDS011;392;48.838;2.322;2023-02-13T12:27:04;28.27;;;22.83;;
819;SDS011;392;48.838;2.322;2023-02-13T12:29:47;31.73;;;23.53;;
819;SDS011;392;48.838;2.322;2023-02-13T12:32:34;32.47;;;23.13;;
819;SDS011;392;48.838;2.322;2023-02-13T12:35:17;30.43;;;23.60;;
819;SDS011;392;48.838;2.322;2023-02-13T12:38:10;29.73;;;23.30;;
819;SDS011;392;48.838;2.322;2023-02-13T12:40:59;33.50;;;22.90;;
819;SDS011;392;48.838;2.322;2023-02-13T12:46:44;28.23;;;22.40;;
819;SDS011;392;48.838;2.322;2023-02-13T12:49:27;27.47;;;22.07;;
819;SDS011;392;48.838;2.322;2023-02-13T12:52:32;29.00;;;23.63;;
819;SDS011;392;48.838;2.322;2023-02-13T12:58:17;28.43;;;22.90;;
819;SDS011;392;48.838;2.322;2023-02-13T13:01:12;31.97;;;22.93;;
819;SDS011;392;48.838;2.322;2023-02-13T13:03:50;29.87;;;23.10;;
819;SDS011;392;48.838;2.322;2023-02-13T13:06:40;28.43;;;23.07;;
819;SDS011;392;48.838;2.322;2023-02-13T13:09:40;24.47;;;20.63;;
819;SDS011;392;48.838;2.322;2023-02-13T13:12:23;25.40;;;21.57;;
819;SDS011;392;48.838;2.322;2023-02-13T13:15:10;27.53;;;22.97;;
819;SDS011;392;48.838;2.322;2023-02-13T13:17:52;28.07;;;22.40;;
819;SDS011;392;48.838;2.322;2023-02-13T13:20:39;28.50;;;21.60;;
819;SDS011;392;48.838;2.322;2023-02-13T13:23:20;27.07;;;21.40;;
819;SDS011;392;48.838;2.322;2023-02-13T13:25:56;24.80;;;22.10;;
819;SDS011;392;48.838;2.322;2023-02-13T13:28:33;25.50;;;22.83;;
819;SDS011;392;48.838;2.322;2023-02-13T13:31:05;27.43;;;23.00;;
819;SDS011;392;48.838;2.322;2023-02-13T13:33:34;31.40;;;27.07;;
819;SDS011;392;48.838;2.322;2023-02-13T13:36:09;26.77;;;24.07;;
819;SDS011;392;48.838;2.322;2023-02-13T13:38:46;27.43;;;24.93;;
819;SDS011;392;48.838;2.322;2023-02-13T13:41:26;28.03;;;25.30;;
819;SDS011;392;48.838;2.322;2023-02-13T13:44:12;28.30;;;25.57;;
819;SDS011;392;48.838;2.322;2023-02-13T13:47:09;28.47;;;25.60;;
819;SDS011;392;48.838;2.322;2023-02-13T13:49:50;29.10;;;26.30;;
819;SDS011;392;48.838;2.322;2023-02-13T13:52:23;29.40;;;26.60;;
819;SDS011;392;48.838;2.322;2023-02-13T13:54:54;30.43;;;27.40;;
819;SDS011;392;48.838;2.322;2023-02-13T13:57:24;28.83;;;26.13;;
819;SDS011;392;48.838;2.322;2023-02-13T14:03:19;28.50;;;25.50;;
819;SDS011;392;48.838;2.322;2023-02-13T14:06:04;30.23;;;27.43;;
819;SDS011;392;48.838;2.322;2023-02-13T14:08:53;29.17;;;26.27;;
819;SDS011;392;48.838;2.322;2023-02-13T14:11:43;27.47;;;24.83;;
819;SDS011;392;48.838;2.322;2023-02-13T14:20:21;27.40;;;24.57;;
819;SDS011;392;48.838;2.322;2023-02-13T14:23:05;26.30;;;23.60;;
819;SDS011;392;48.838;2.322;2023-02-13T14:25:39;26.57;;;23.80;;
819;SDS011;392;48.838;2.322;2023-02-13T14:28:14;25.83;;;23.10;;
819;SDS011;392;48.838;2.322;2023-02-13T14:30:48;27.47;;;24.77;;
819;SDS011;392;48.838;2.322;2023-02-13T14:33:23;27.27;;;24.67;;
819;SDS011;392;48.838;2.322;2023-02-13T14:36:00;26.97;;;24.37;;
819;SDS011;392;48.838;2.322;2023-02-13T14:38:32;25.57;;;23.10;;
819;SDS011;392;48.838;2.322;2023-02-13T14:41:01;26.87;;;24.17;;
819;SDS011;392;48.838;2.322;2023-02-13T14:43:31;26.50;;;23.90;;
819;SDS011;392;48.838;2.322;2023-02-13T14:46:07;26.40;;;23.73;;
819;SDS011;392;48.838;2.322;2023-02-13T14:48:50;28.30;;;25.30;;
819;SDS011;392;48.838;2.322;2023-02-13T14:51:25;27.80;;;24.87;;
819;SDS011;392;48.838;2.322;2023-02-13T14:54:05;27.57;;;24.67;;
819;SDS011;392;48.838;2.322;2023-02-13T14:56:45;27.23;;;24.17;;
819;SDS011;392;48.838;2.322;2023-02-13T14:59:16;27.07;;;24.37;;
819;SDS011;392;48.838;2.322;2023-02-13T15:01:48;26.30;;;23.50;;
819;SDS011;392;48.838;2.322;2023-02-13T15:04:23;28.47;;;24.70;;
819;SDS011;392;48.838;2.322;2023-02-13T15:06:56;26.13;;;23.43;;
819;SDS011;392;48.838;2.322;2023-02-13T15:09:29;25.80;;;23.00;;
819;SDS011;392;48.838;2.322;2023-02-13T15:12:03;27.43;;;23.80;;
819;SDS011;392;48.838;2.322;2023-02-13T15:14:31;25.37;;;22.50;;
819;SDS011;392;48.838;2.322;2023-02-13T15:17:01;29.50;;;24.07;;
819;SDS011;392;48.838;2.322;2023-02-13T15:19:34;25.60;;;22.83;;
819;SDS011;392;48.838;2.322;2023-02-13T15:22:14;26.73;;;23.80;;
819;SDS011;392;48.838;2.322;2023-02-13T15:24:46;25.53;;;22.83;;
819;SDS011;392;48.838;2.322;2023-02-13T15:27:17;24.77;;;22.10;;
819;SDS011;392;48.838;2.322;2023-02-13T15:29:55;25.57;;;22.53;;
819;SDS011;392;48.838;2.322;2023-02-13T15:32:27;29.90;;;24.57;;
819;SDS011;392;48.838;2.322;2023-02-13T15:34:59;28.60;;;23.00;;
819;SDS011;392;48.838;2.322;2023-02-13T15:37:29;25.57;;;22.03;;
819;SDS011;392;48.838;2.322;2023-02-13T15:40:13;26.90;;;22.10;;
819;SDS011;392;48.838;2.322;2023-02-13T15:42:42;28.10;;;22.90;;
819;SDS011;392;48.838;2.322;2023-02-13T15:45:14;25.53;;;22.67;;
819;SDS011;392;48.838;2.322;2023-02-13T15:47:44;27.20;;;24.30;;
819;SDS011;392;48.838;2.322;2023-02-13T15:50:18;26.80;;;23.83;;
819;SDS011;392;48.838;2.322;2023-02-13T15:52:50;25.90;;;21.63;;
819;SDS011;392;48.838;2.322;2023-02-13T15:55:18;25.10;;;22.40;;
819;SDS011;392;48.838;2.322;2023-02-13T15:58:11;25.57;;;22.53;;
819;SDS011;392;48.838;2.322;2023-02-13T16:00:40;24.60;;;20.43;;
819;SDS011;392;48.838;2.322;2023-02-13T16:03:12;30.00;;;22.20;;
819;SDS011;392;48.838;2.322;2023-02-13T16:05:44;27.50;;;23.23;;
819;SDS011;392;48.838;2.322;2023-02-13T16:08:32;23.87;;;20.87;;
819;SDS011;392;48.838;2.322;2023-02-13T16:13:58;26.63;;;22.70;;
819;SDS011;392;48.838;2.322;2023-02-13T16:16:34;27.37;;;22.47;;
819;SDS011;392;48.838;2.322;2023-02-13T16:19:19;23.73;;;21.23;;